createdAt,value
2023-03-17T00:01:15.199Z,1.55
2023-03-17T00:03:43.642Z,1.67
2023-03-17T00:06:15.840Z,1.60
2023-03-17T00:08:42.855Z,1.60
2023-03-17T00:11:12.285Z,1.23
2023-03-17T00:13:39.028Z,1.30
2023-03-17T00:16:12.950Z,1.45
2023-03-17T00:18:39.620Z,1.48
2023-03-17T00:21:06.175Z,1.27
2023-03-17T00:23:34.055Z,1.65
2023-03-17T00:26:00.637Z,1.40
2023-03-17T00:28:27.882Z,1.25
2023-03-17T00:30:57.094Z,1.33
2023-03-17T00:33:25.646Z,1.30
2023-03-17T00:35:52.680Z,1.42
2023-03-17T00:38:21.063Z,1.30
2023-03-17T00:40:48.888Z,1.50
2023-03-17T00:43:15.407Z,1.40
2023-03-17T00:45:42.161Z,1.33
2023-03-17T00:48:14.552Z,1.40
2023-03-17T00:50:41.316Z,1.48
2023-03-17T00:53:11.971Z,1.27
2023-03-17T00:55:38.535Z,1.23
2023-03-17T00:58:13.422Z,1.38
2023-03-17T01:00:39.965Z,1.50
2023-03-17T01:03:10.999Z,1.10
2023-03-17T01:05:38.355Z,1.45
2023-03-17T01:08:05.331Z,1.40
2023-03-17T01:10:32.398Z,1.40
2023-03-17T01:12:59.381Z,1.40
2023-03-17T01:15:30.522Z,1.60
2023-03-17T01:17:58.022Z,1.27
2023-03-17T01:20:27.952Z,1.20
2023-03-17T01:22:54.923Z,1.20
2023-03-17T01:25:21.788Z,1.40
2023-03-17T01:27:48.495Z,1.20
2023-03-17T01:30:23.835Z,1.40
2023-03-17T01:32:52.009Z,1.48
2023-03-17T01:35:19.154Z,1.38
2023-03-17T01:37:46.063Z,1.20
2023-03-17T01:40:16.601Z,1.30
2023-03-17T01:42:45.236Z,1.20
2023-03-17T01:45:36.541Z,1.10
2023-03-17T01:48:04.434Z,1.25
2023-03-17T01:50:31.691Z,1.30
2023-03-17T01:52:58.467Z,1.30
2023-03-17T01:55:25.086Z,1.42
2023-03-17T01:57:54.145Z,0.98
2023-03-17T02:00:22.933Z,1.23
2023-03-17T02:02:51.881Z,1.20
2023-03-17T02:05:21.952Z,1.35
2023-03-17T02:07:48.570Z,1.30
2023-03-17T02:10:18.400Z,1.30
2023-03-17T02:12:47.177Z,1.10
2023-03-17T02:15:13.660Z,1.42
2023-03-17T02:17:40.194Z,1.25
2023-03-17T02:20:26.534Z,1.33
2023-03-17T02:22:56.327Z,1.20
2023-03-17T02:25:24.779Z,1.33
2023-03-17T02:27:55.170Z,1.00
2023-03-17T02:30:23.724Z,1.10
2023-03-17T02:32:50.987Z,0.98
2023-03-17T02:35:18.083Z,1.27
2023-03-17T02:37:44.636Z,1.10
2023-03-17T02:40:13.854Z,1.23
2023-03-17T02:42:40.931Z,1.27
2023-03-17T02:45:09.852Z,1.15
2023-03-17T02:47:36.362Z,1.35
2023-03-17T02:50:03.073Z,1.35
2023-03-17T02:52:29.558Z,1.25
2023-03-17T02:54:56.026Z,1.10
2023-03-17T02:57:23.909Z,1.40
2023-03-17T02:59:50.395Z,1.40
2023-03-17T03:02:16.920Z,1.27
2023-03-17T03:04:43.759Z,1.30
2023-03-17T03:07:11.074Z,0.70
2023-03-17T03:09:37.661Z,1.30
2023-03-17T03:12:04.869Z,0.95
2023-03-17T03:14:32.734Z,1.20
2023-03-17T03:16:59.297Z,1.20
2023-03-17T03:19:25.743Z,1.40
2023-03-17T03:21:52.264Z,1.30
2023-03-17T03:24:18.760Z,1.48
2023-03-17T03:26:45.285Z,0.88
2023-03-17T03:29:11.939Z,1.10
2023-03-17T03:31:39.716Z,1.27
2023-03-17T03:34:06.234Z,1.20
2023-03-17T03:36:32.743Z,1.25
2023-03-17T03:38:59.260Z,1.08
2023-03-17T03:41:25.741Z,1.25
2023-03-17T03:43:52.289Z,1.05
2023-03-17T03:46:18.878Z,1.27
2023-03-17T03:48:46.769Z,1.20
2023-03-17T03:51:13.340Z,1.20
2023-03-17T03:53:39.848Z,1.10
2023-03-17T03:56:06.909Z,1.08
2023-03-17T03:58:33.459Z,0.95
2023-03-17T04:01:04.176Z,1.10
2023-03-17T04:03:30.671Z,1.10
2023-03-17T04:05:58.606Z,1.30
2023-03-17T04:08:25.195Z,1.20
2023-03-17T04:10:51.683Z,1.35
2023-03-17T04:13:18.153Z,1.00
2023-03-17T04:15:44.628Z,1.02
2023-03-17T04:18:11.227Z,1.15
2023-03-17T04:20:37.848Z,1.30
2023-03-17T04:23:05.715Z,1.08
2023-03-17T04:25:32.343Z,1.48
2023-03-17T04:27:58.815Z,1.23
2023-03-17T04:30:25.383Z,1.00
2023-03-17T04:32:51.969Z,1.40
2023-03-17T04:35:20.326Z,1.30
2023-03-17T04:37:47.234Z,1.33
2023-03-17T04:40:17.188Z,1.10
2023-03-17T04:42:43.621Z,1.23
2023-03-17T04:45:12.921Z,1.15
2023-03-17T04:47:39.462Z,1.17
2023-03-17T04:50:06.809Z,1.10
2023-03-17T04:52:33.565Z,1.10
2023-03-17T04:55:00.110Z,1.27
2023-03-17T04:57:27.970Z,0.88
2023-03-17T04:59:54.498Z,0.98
2023-03-17T05:02:20.967Z,1.15
2023-03-17T05:04:47.652Z,1.10
2023-03-17T05:07:14.562Z,1.30
2023-03-17T05:09:41.245Z,1.10
2023-03-17T05:12:09.130Z,1.27
2023-03-17T05:14:37.288Z,1.10
2023-03-17T05:17:03.858Z,1.20
2023-03-17T05:19:30.300Z,1.13
2023-03-17T05:21:56.804Z,1.20
2023-03-17T05:24:23.514Z,1.02
2023-03-17T05:26:50.058Z,1.20
2023-03-17T05:29:16.687Z,1.33
2023-03-17T05:31:44.470Z,1.23
2023-03-17T05:34:10.967Z,1.00
2023-03-17T05:36:37.631Z,1.27
2023-03-17T05:39:04.379Z,1.35
2023-03-17T05:41:30.901Z,1.10
2023-03-17T05:43:57.393Z,1.48
2023-03-17T05:46:23.900Z,1.13
2023-03-17T05:48:51.710Z,0.98
2023-03-17T05:51:18.314Z,0.95
2023-03-17T05:53:44.778Z,1.50
2023-03-17T05:56:11.549Z,1.20
2023-03-17T05:58:38.118Z,1.30
2023-03-17T06:01:04.840Z,1.50
2023-03-17T06:03:31.377Z,1.52
2023-03-17T06:05:59.157Z,1.20
2023-03-17T06:08:25.812Z,1.30
2023-03-17T06:10:52.300Z,1.20
2023-03-17T06:13:18.812Z,1.25
2023-03-17T06:15:48.498Z,1.23
2023-03-17T06:18:15.185Z,1.05
2023-03-17T06:20:41.704Z,1.33
2023-03-17T06:23:09.513Z,1.25
2023-03-17T06:25:36.268Z,1.30
2023-03-17T06:28:02.966Z,2.25
2023-03-17T06:30:30.383Z,1.48
2023-03-17T06:32:56.996Z,1.45
2023-03-17T06:35:23.606Z,1.52
2023-03-17T06:37:50.112Z,1.67
2023-03-17T06:40:18.070Z,1.92
2023-03-17T06:42:44.623Z,1.83
2023-03-17T06:45:11.819Z,1.48
2023-03-17T06:47:38.506Z,1.70
2023-03-17T06:50:09.980Z,1.60
2023-03-17T06:52:36.766Z,1.52
2023-03-17T06:55:03.624Z,1.58
2023-03-17T06:57:31.933Z,1.60
2023-03-17T06:59:58.604Z,1.58
2023-03-17T07:02:25.303Z,1.50
2023-03-17T07:04:52.003Z,1.80
2023-03-17T07:07:18.859Z,2.47
2023-03-17T07:09:45.380Z,2.60
2023-03-17T07:12:12.105Z,3.03
2023-03-17T07:14:40.095Z,2.38
2023-03-17T07:17:06.833Z,2.22
2023-03-17T07:19:33.779Z,2.40
2023-03-17T07:22:01.606Z,2.13
2023-03-17T07:24:28.149Z,1.95
2023-03-17T07:26:54.697Z,2.38
2023-03-17T07:29:21.244Z,2.17
2023-03-17T07:31:49.917Z,2.42
2023-03-17T07:34:16.571Z,2.72
2023-03-17T07:36:43.436Z,2.08
2023-03-17T07:39:11.995Z,2.30
2023-03-17T07:41:39.218Z,2.20
2023-03-17T07:44:06.455Z,2.50
2023-03-17T07:46:33.529Z,2.00
2023-03-17T07:49:02.575Z,2.10
2023-03-17T07:51:29.831Z,2.03
2023-03-17T07:53:56.715Z,1.70
2023-03-17T07:56:23.406Z,2.00
2023-03-17T07:58:50.740Z,1.98
2023-03-17T08:01:17.888Z,2.22
2023-03-17T08:03:44.579Z,2.55
2023-03-17T08:06:13.060Z,3.20
2023-03-17T08:08:40.291Z,3.17
2023-03-17T08:11:07.282Z,2.67
2023-03-17T08:13:34.858Z,3.15
2023-03-17T08:16:01.870Z,3.17
2023-03-17T08:18:28.584Z,3.20
2023-03-17T08:20:55.750Z,2.55
2023-03-17T08:23:23.912Z,3.08
2023-03-17T08:25:50.794Z,2.90
2023-03-17T08:28:17.353Z,3.30
2023-03-17T08:30:44.220Z,3.60
2023-03-17T08:33:10.842Z,3.53
2023-03-17T08:35:40.783Z,3.10
2023-03-17T08:41:17.920Z,2.65
2023-03-17T08:43:45.222Z,3.95
2023-03-17T08:46:15.055Z,3.00
2023-03-17T08:48:41.513Z,2.67
2023-03-17T08:51:08.199Z,2.95
2023-03-17T08:53:35.221Z,2.95
2023-03-17T08:56:02.358Z,2.97
2023-03-17T08:58:31.028Z,3.67
2023-03-17T09:00:58.654Z,2.88
2023-03-17T09:03:25.422Z,2.70
2023-03-17T09:05:51.908Z,3.10
2023-03-17T09:08:18.499Z,2.92
2023-03-17T09:10:45.028Z,2.72
2023-03-17T09:13:11.802Z,2.72
2023-03-17T09:15:40.020Z,2.95
2023-03-17T09:18:08.022Z,2.60
2023-03-17T09:20:35.095Z,2.63
2023-03-17T09:23:05.787Z,2.92
2023-03-17T09:25:34.208Z,3.80
2023-03-17T09:28:00.682Z,5.15
2023-03-17T09:30:27.274Z,3.33
2023-03-17T09:32:55.143Z,3.55
2023-03-17T09:35:21.916Z,3.63
2023-03-17T09:37:49.135Z,3.35
2023-03-17T09:40:18.708Z,3.83
2023-03-17T09:42:53.597Z,2.92
2023-03-17T09:45:31.106Z,2.40
2023-03-17T09:48:10.563Z,2.65
2023-03-17T09:50:43.856Z,3.03
2023-03-17T09:53:17.571Z,2.67
2023-03-17T09:55:45.853Z,2.63
2023-03-17T09:58:12.363Z,2.72
2023-03-17T10:00:38.986Z,2.60
2023-03-17T10:03:10.734Z,2.50
2023-03-17T10:05:37.308Z,2.53
2023-03-17T10:08:28.852Z,2.50
2023-03-17T10:11:01.910Z,2.38
2023-03-17T10:13:45.414Z,2.92
2023-03-17T10:16:13.249Z,2.35
2023-03-17T10:18:45.476Z,2.47
2023-03-17T10:21:17.326Z,2.40
2023-03-17T10:23:45.529Z,3.05
2023-03-17T10:26:24.498Z,2.83
2023-03-17T10:28:50.947Z,2.78
2023-03-17T10:31:20.419Z,3.35
2023-03-17T10:33:50.092Z,2.88
2023-03-17T10:36:31.632Z,3.17
2023-03-17T10:38:58.091Z,2.97
2023-03-17T10:41:24.902Z,2.65
2023-03-17T10:43:51.435Z,3.40
2023-03-17T10:46:20.287Z,3.38
2023-03-17T10:48:53.477Z,3.35
2023-03-17T10:51:31.650Z,3.35
2023-03-17T10:54:00.649Z,3.45
2023-03-17T10:56:32.978Z,2.97
2023-03-17T10:59:07.178Z,3.42
2023-03-17T11:01:38.290Z,2.83
2023-03-17T11:04:30.204Z,3.10
2023-03-17T11:06:58.621Z,2.92
2023-03-17T11:09:26.455Z,2.90
2023-03-17T11:12:01.546Z,2.70
2023-03-17T11:14:28.102Z,2.65
2023-03-17T11:16:57.053Z,2.47
2023-03-17T11:19:37.588Z,2.83
2023-03-17T11:22:10.514Z,2.30
2023-03-17T11:24:45.434Z,2.60
2023-03-17T11:27:21.072Z,2.33
2023-03-17T11:30:02.368Z,2.35
2023-03-17T11:32:33.881Z,2.35
2023-03-17T11:35:22.258Z,2.42
2023-03-17T11:38:04.143Z,3.67
2023-03-17T11:40:34.421Z,3.67
2023-03-17T11:43:18.520Z,4.60
2023-03-17T11:48:29.756Z,4.00
2023-03-17T11:51:01.843Z,4.28
2023-03-17T11:53:46.801Z,3.88
2023-03-17T11:56:18.775Z,3.33
2023-03-17T11:58:48.049Z,4.10
2023-03-17T12:01:19.275Z,3.63
2023-03-17T12:03:51.843Z,3.65
2023-03-17T12:06:27.905Z,3.90
2023-03-17T12:08:59.337Z,3.40
2023-03-17T12:11:28.409Z,3.50
2023-03-17T12:13:59.525Z,4.45
2023-03-17T12:16:31.657Z,3.60
2023-03-17T12:19:06.915Z,4.35
2023-03-17T12:21:42.058Z,3.50
2023-03-17T12:24:13.206Z,5.00
2023-03-17T12:26:47.713Z,4.03
2023-03-17T12:29:19.076Z,4.78
2023-03-17T12:31:52.122Z,3.83
2023-03-17T12:34:22.399Z,4.88
2023-03-17T12:36:50.400Z,4.88
2023-03-17T12:39:21.811Z,3.63
2023-03-17T12:42:04.827Z,3.00
2023-03-17T12:44:43.660Z,2.95
2023-03-17T12:47:26.917Z,3.00
2023-03-17T12:50:00.334Z,2.90
2023-03-17T12:52:40.404Z,1.88
2023-03-17T12:55:13.012Z,3.05
2023-03-17T12:57:41.516Z,3.22
2023-03-17T13:00:19.679Z,3.20
2023-03-17T13:02:50.595Z,2.60
2023-03-17T13:05:28.460Z,2.72
2023-03-17T13:07:59.361Z,2.75
2023-03-17T13:10:41.759Z,3.53
2023-03-17T13:13:35.747Z,3.22
2023-03-17T13:16:05.346Z,3.03
2023-03-17T13:18:48.491Z,3.08
2023-03-17T13:21:18.273Z,4.15
2023-03-17T13:23:47.062Z,3.40
2023-03-17T13:26:17.849Z,4.20
2023-03-17T13:28:47.057Z,3.40
2023-03-17T13:31:32.506Z,3.03
2023-03-17T13:34:07.100Z,3.22
2023-03-17T13:36:41.905Z,3.83
2023-03-17T13:39:25.934Z,3.47
2023-03-17T13:42:17.613Z,3.13
2023-03-17T13:45:04.269Z,2.90
2023-03-17T13:47:36.019Z,2.65
2023-03-17T13:50:08.670Z,3.50
2023-03-17T13:52:42.807Z,2.95
2023-03-17T13:55:31.777Z,2.45
2023-03-17T13:58:23.078Z,2.78
2023-03-17T14:00:57.374Z,2.58
2023-03-17T14:03:30.886Z,4.40
2023-03-17T14:06:00.638Z,5.25
2023-03-17T14:08:29.912Z,4.15
2023-03-17T14:10:58.485Z,2.90
2023-03-17T14:13:27.831Z,3.83
2023-03-17T14:15:59.755Z,4.35
2023-03-17T14:18:33.442Z,4.43
2023-03-17T14:21:01.813Z,4.68
2023-03-17T14:23:29.215Z,4.07
2023-03-17T14:25:57.042Z,4.50
2023-03-17T14:28:26.588Z,3.45
2023-03-17T14:30:55.019Z,3.17
2023-03-17T14:33:24.106Z,2.70
2023-03-17T14:35:56.047Z,3.33
2023-03-17T14:38:25.683Z,3.15
2023-03-17T14:41:00.482Z,3.50
2023-03-17T14:43:27.078Z,3.08
2023-03-17T14:45:59.304Z,3.00
2023-03-17T14:48:28.039Z,2.88
2023-03-17T14:50:59.468Z,3.13
2023-03-17T14:53:25.939Z,3.42
2023-03-17T14:55:52.957Z,2.92
2023-03-17T14:58:24.130Z,4.07
2023-03-17T15:00:56.717Z,4.03
2023-03-17T15:03:27.168Z,3.30
2023-03-17T15:06:06.112Z,4.13
2023-03-17T15:08:43.117Z,3.17
2023-03-17T15:11:17.376Z,2.63
2023-03-17T15:13:43.941Z,3.17
2023-03-17T15:16:17.997Z,3.65
2023-03-17T15:18:45.114Z,3.42
2023-03-17T15:21:23.904Z,2.75
2023-03-17T15:23:50.739Z,3.33
2023-03-17T15:26:24.133Z,3.00
2023-03-17T15:28:50.886Z,2.47
2023-03-17T15:31:17.434Z,3.17
